createdAt,value
2018-07-08T00:00:17.023Z,986
2018-07-08T00:01:18.392Z,986
2018-07-08T00:02:20.079Z,986
2018-07-08T00:03:21.437Z,986.1
2018-07-08T00:04:23.190Z,986
2018-07-08T00:05:24.484Z,986.1
2018-07-08T00:06:26.686Z,986.1
2018-07-08T00:07:28.002Z,986
2018-07-08T00:08:32.769Z,986.1
2018-07-08T00:09:34.153Z,986
2018-07-08T00:10:35.456Z,986
2018-07-08T00:11:36.783Z,986
2018-07-08T00:12:38.359Z,986.1
2018-07-08T00:13:39.704Z,986.1
2018-07-08T00:14:40.973Z,986
2018-07-08T00:15:42.288Z,986.1
2018-07-08T00:16:43.650Z,986.2
2018-07-08T00:17:44.965Z,986
2018-07-08T00:18:46.240Z,986
2018-07-08T00:19:47.996Z,986.1
2018-07-08T00:20:49.309Z,986.1
2018-07-08T00:21:50.668Z,986.1
2018-07-08T00:22:51.996Z,986
2018-07-08T00:23:53.372Z,986
2018-07-08T00:24:57.576Z,986.1
2018-07-08T00:26:00.121Z,986
2018-07-08T00:27:01.561Z,986
2018-07-08T00:28:02.952Z,985.9
2018-07-08T00:29:04.246Z,985.9
2018-07-08T00:30:05.597Z,985.9
2018-07-08T00:31:08.141Z,985.9
2018-07-08T00:32:09.553Z,985.7
2018-07-08T00:33:10.872Z,985.9
2018-07-08T00:34:13.303Z,986
2018-07-08T00:35:14.618Z,985.9
2018-07-08T00:36:15.903Z,985.9
2018-07-08T00:37:17.373Z,985.8
2018-07-08T00:38:21.296Z,985.9
2018-07-08T00:39:22.807Z,985.9
2018-07-08T00:40:24.331Z,986
2018-07-08T00:41:25.743Z,985.9
2018-07-08T00:42:27.097Z,985.9
2018-07-08T00:43:28.443Z,985.9
2018-07-08T00:44:30.019Z,985.9
2018-07-08T00:45:31.317Z,985.9
2018-07-08T00:46:32.618Z,985.9
2018-07-08T00:47:33.963Z,985.8
2018-07-08T00:48:35.297Z,985.9
2018-07-08T00:49:36.917Z,985.8
2018-07-08T00:50:38.369Z,986
2018-07-08T00:51:39.904Z,985.9
2018-07-08T00:52:41.246Z,985.9
2018-07-08T00:53:42.560Z,985.9
2018-07-08T00:54:43.920Z,985.9
2018-07-08T00:55:45.198Z,985.9
2018-07-08T00:56:46.540Z,986
2018-07-08T00:57:48.021Z,986
2018-07-08T00:58:49.444Z,986
2018-07-08T00:59:50.755Z,985.9
2018-07-08T01:00:52.021Z,985.9
2018-07-08T01:01:53.354Z,986
2018-07-08T01:02:55.189Z,986.1
2018-07-08T01:03:56.564Z,985.9
2018-07-08T01:04:57.915Z,986
2018-07-08T01:05:59.312Z,985.9
2018-07-08T01:07:00.629Z,985.9
2018-07-08T01:08:01.977Z,985.9
2018-07-08T01:09:03.351Z,985.9
2018-07-08T01:10:04.694Z,985.9
2018-07-08T01:11:06.053Z,986
2018-07-08T01:12:07.589Z,985.9
2018-07-08T01:13:09.207Z,985.9
2018-07-08T01:14:10.503Z,985.8
2018-07-08T01:15:15.295Z,985.8
2018-07-08T01:16:17.085Z,985.9
2018-07-08T01:17:18.438Z,985.9
2018-07-08T01:18:19.765Z,985.9
2018-07-08T01:19:21.079Z,985.9
2018-07-08T01:20:22.389Z,985.9
2018-07-08T01:21:23.648Z,985.9
2018-07-08T01:22:25.029Z,985.9
2018-07-08T01:23:26.418Z,985.9
2018-07-08T01:24:27.743Z,985.8
2018-07-08T01:25:31.480Z,985.7
2018-07-08T01:26:32.792Z,985.9
2018-07-08T01:27:34.271Z,986
2018-07-08T01:28:37.440Z,986
2018-07-08T01:29:38.768Z,986
2018-07-08T01:30:40.082Z,986
2018-07-08T01:31:42.266Z,986
2018-07-08T01:32:43.594Z,986.1
2018-07-08T01:33:45.039Z,985.9
2018-07-08T01:34:46.327Z,986
2018-07-08T01:35:47.923Z,985.9
2018-07-08T01:36:51.523Z,985.9
2018-07-08T01:37:53.349Z,985.9
2018-07-08T01:38:54.745Z,986
2018-07-08T01:39:56.230Z,986
2018-07-08T01:40:57.551Z,986
2018-07-08T01:41:58.875Z,985.9
2018-07-08T01:43:00.509Z,986
2018-07-08T01:44:01.872Z,986.1
2018-07-08T01:45:05.246Z,986
2018-07-08T01:46:06.583Z,986.2
2018-07-08T01:47:07.916Z,986
2018-07-08T01:48:09.227Z,986.1
2018-07-08T01:49:10.509Z,986.1
2018-07-08T01:50:11.808Z,986.1
2018-07-08T01:51:13.120Z,986
2018-07-08T01:52:18.482Z,986.2
2018-07-08T01:53:19.827Z,986
2018-07-08T01:54:21.444Z,986.1
2018-07-08T01:55:22.873Z,986
2018-07-08T01:56:31.397Z,986.1
2018-07-08T01:57:32.747Z,986.1
2018-07-08T01:58:36.159Z,986.2
2018-07-08T01:59:37.570Z,986.3
2018-07-08T02:00:39.015Z,986
2018-07-08T02:01:40.424Z,986.2
2018-07-08T02:02:41.733Z,986.2
2018-07-08T02:03:43.085Z,986.2
2018-07-08T02:04:44.553Z,986.3
2018-07-08T02:05:45.881Z,986.3
2018-07-08T02:06:47.242Z,986.3
2018-07-08T02:07:51.343Z,986.3
2018-07-08T02:08:52.710Z,986.2
2018-07-08T02:09:54.108Z,986.2
2018-07-08T02:10:55.560Z,986.2
2018-07-08T02:11:56.829Z,986.1
2018-07-08T02:12:58.181Z,986.3
2018-07-08T02:14:01.553Z,986.3
2018-07-08T02:15:02.999Z,986.3
2018-07-08T02:16:04.320Z,986.2
2018-07-08T02:17:05.645Z,986.2
2018-07-08T02:18:11.844Z,986.3
2018-07-08T02:19:13.160Z,986.4
2018-07-08T02:20:16.669Z,986.4
2018-07-08T02:21:17.990Z,986.3
2018-07-08T02:22:19.363Z,986.2
2018-07-08T02:23:20.681Z,986.3
2018-07-08T02:24:22.019Z,986.2
2018-07-08T02:25:23.572Z,986.3
2018-07-08T02:26:24.867Z,986.1
2018-07-08T02:27:26.327Z,986.3
2018-07-08T02:28:27.691Z,986.2
2018-07-08T02:29:29.100Z,986.1
2018-07-08T02:30:30.424Z,986.2
2018-07-08T02:31:31.687Z,986.3
2018-07-08T02:32:33.078Z,986.1
2018-07-08T02:33:36.736Z,986.3
2018-07-08T02:34:38.063Z,986.3
2018-07-08T02:35:39.651Z,986.3
2018-07-08T02:36:40.985Z,986.4
2018-07-08T02:37:42.347Z,986.3
2018-07-08T02:38:43.597Z,986.5
2018-07-08T02:39:44.903Z,986.4
2018-07-08T02:40:46.305Z,986.4
2018-07-08T02:41:47.631Z,986.4
2018-07-08T02:42:48.961Z,986.4
2018-07-08T02:43:50.314Z,986.4
2018-07-08T02:44:51.609Z,986.5
2018-07-08T02:45:53.013Z,986.6
2018-07-08T02:46:54.397Z,986.5
2018-07-08T02:47:55.759Z,986.2
2018-07-08T02:48:57.125Z,986.5
2018-07-08T02:49:58.395Z,986.4
2018-07-08T02:51:02.932Z,986.5
2018-07-08T02:52:04.273Z,986.6
2018-07-08T02:53:05.676Z,986.5
2018-07-08T02:54:07.009Z,986.4
2018-07-08T02:55:08.283Z,986.4
2018-07-08T02:56:09.631Z,986.5
2018-07-08T02:57:10.945Z,986.4
2018-07-08T02:58:12.228Z,986.5
2018-07-08T02:59:13.643Z,986.7
2018-07-08T03:00:14.968Z,986.5
2018-07-08T03:01:16.314Z,986.6
2018-07-08T03:02:19.544Z,986.6
2018-07-08T03:03:20.844Z,986.6
2018-07-08T03:04:24.452Z,986.7
2018-07-08T03:05:25.830Z,986.5
2018-07-08T03:06:27.244Z,986.5
2018-07-08T03:07:28.596Z,986.5
2018-07-08T03:08:30.008Z,986.6
2018-07-08T03:09:31.346Z,986.5
2018-07-08T03:10:32.623Z,986.6
2018-07-08T03:11:33.963Z,986.5
2018-07-08T03:12:35.281Z,986.5
2018-07-08T03:13:36.602Z,986.6
2018-07-08T03:14:37.913Z,986.5
2018-07-08T03:15:39.382Z,986.5
2018-07-08T03:16:40.691Z,986.4
2018-07-08T03:17:42.263Z,986.5
2018-07-08T03:18:43.583Z,986.5
2018-07-08T03:19:44.943Z,986.6
2018-07-08T03:20:46.282Z,986.6
2018-07-08T03:21:50.435Z,986.7
2018-07-08T03:22:51.771Z,986.5
2018-07-08T03:23:53.127Z,986.6
2018-07-08T03:24:54.433Z,986.6
2018-07-08T03:25:55.766Z,986.6
2018-07-08T03:26:57.118Z,986.5
2018-07-08T03:27:58.438Z,986.6
2018-07-08T03:28:59.801Z,986.6
2018-07-08T03:30:01.161Z,986.8
2018-07-08T03:31:02.560Z,986.7
2018-07-08T03:32:04.136Z,986.8
2018-07-08T03:33:05.460Z,986.6
2018-07-08T03:34:06.775Z,986.8
2018-07-08T03:35:08.111Z,986.9
2018-07-08T03:36:12.426Z,986.8
2018-07-08T03:37:13.784Z,986.8
2018-07-08T03:38:15.112Z,986.9
2018-07-08T03:39:17.596Z,986.8
2018-07-08T03:40:18.956Z,986.7
2018-07-08T03:41:22.555Z,986.7
2018-07-08T03:42:25.486Z,986.7
2018-07-08T03:43:26.996Z,986.7
2018-07-08T03:44:28.317Z,986.9
2018-07-08T03:45:29.601Z,986.7
2018-07-08T03:46:30.972Z,986.8
2018-07-08T03:47:32.358Z,986.9
2018-07-08T03:48:33.697Z,986.9
2018-07-08T03:49:37.160Z,986.8
2018-07-08T03:50:38.544Z,986.7
2018-07-08T03:51:43.993Z,986.9
2018-07-08T03:52:45.343Z,986.9
2018-07-08T03:53:46.656Z,986.9
2018-07-08T03:54:47.955Z,987
2018-07-08T03:55:49.316Z,986.9
2018-07-08T03:56:50.684Z,987
2018-07-08T03:57:52.041Z,986.9
2018-07-08T03:58:53.336Z,986.9
2018-07-08T03:59:54.642Z,986.9
2018-07-08T04:00:55.947Z,987
2018-07-08T04:01:57.644Z,987.1
2018-07-08T04:02:58.976Z,987.2
2018-07-08T04:04:00.295Z,987.1
2018-07-08T04:05:03.670Z,987.1
2018-07-08T04:06:04.992Z,987.2
2018-07-08T04:07:06.342Z,986.9
2018-07-08T04:08:12.724Z,987.1
2018-07-08T04:09:15.259Z,987.2
2018-07-08T04:10:16.620Z,987.2
2018-07-08T04:11:17.908Z,987.2
2018-07-08T04:12:23.820Z,987.2
2018-07-08T04:13:25.344Z,987.2
2018-07-08T04:14:26.716Z,987.2
2018-07-08T04:15:28.236Z,987.3
2018-07-08T04:16:29.704Z,987.4
2018-07-08T04:17:31.064Z,987.3
2018-07-08T04:18:32.505Z,987.2
2018-07-08T04:19:33.865Z,987.1
2018-07-08T04:20:35.262Z,987.3
2018-07-08T04:21:36.636Z,987.4
2018-07-08T04:22:37.976Z,987.4
2018-07-08T04:23:39.361Z,987.5
2018-07-08T04:24:40.730Z,987.6
2018-07-08T04:25:42.052Z,987.5
2018-07-08T04:26:43.383Z,987.6
2018-07-08T04:27:44.726Z,987.5
2018-07-08T04:28:46.260Z,987.5
2018-07-08T04:29:47.659Z,987.4
2018-07-08T04:30:48.953Z,987.5
2018-07-08T04:31:50.369Z,987.5
2018-07-08T04:32:51.796Z,987.5
2018-07-08T04:33:53.136Z,987.4
2018-07-08T04:34:54.465Z,987.4
2018-07-08T04:35:55.865Z,987.3
2018-07-08T04:36:57.144Z,987.3
2018-07-08T04:37:58.456Z,987.2
2018-07-08T04:39:01.131Z,987.2
2018-07-08T04:40:02.514Z,987.2
2018-07-08T04:41:03.841Z,987.2
2018-07-08T04:42:05.175Z,987.2
2018-07-08T04:43:06.520Z,987.2
2018-07-08T04:44:08.011Z,987.2
2018-07-08T04:45:09.323Z,987.2
2018-07-08T04:46:10.715Z,987.2
2018-07-08T04:47:12.045Z,987.2
2018-07-08T04:48:13.356Z,987.2
2018-07-08T04:49:14.929Z,987.2
2018-07-08T04:50:16.180Z,987.3
2018-07-08T04:51:17.567Z,987.3
2018-07-08T04:52:22.771Z,987.3
2018-07-08T04:53:24.580Z,987.3
2018-07-08T04:54:25.946Z,987.4
2018-07-08T04:55:29.595Z,987.4
2018-07-08T04:56:30.900Z,987.5
2018-07-08T04:57:32.382Z,987.3
2018-07-08T04:58:33.825Z,987.3
2018-07-08T04:59:35.158Z,987.1
2018-07-08T05:00:36.497Z,987.2
2018-07-08T05:01:37.832Z,987.2
2018-07-08T05:02:39.351Z,987.2
2018-07-08T05:03:40.675Z,987.2
2018-07-08T05:04:42.017Z,987.1
2018-07-08T05:05:43.325Z,987.1
2018-07-08T05:06:47.554Z,987
2018-07-08T05:07:48.853Z,987.1
2018-07-08T05:08:50.239Z,987.1
2018-07-08T05:09:51.615Z,987.1
2018-07-08T05:10:53.007Z,987.1
2018-07-08T05:11:54.329Z,987.1
2018-07-08T05:12:55.670Z,987.2
2018-07-08T05:13:56.994Z,987
2018-07-08T05:14:58.355Z,987.1
2018-07-08T05:15:59.716Z,987.2
2018-07-08T05:17:02.477Z,987.1
2018-07-08T05:18:03.897Z,987.1
2018-07-08T05:19:07.273Z,987.1
2018-07-08T05:20:08.602Z,987.2
2018-07-08T05:21:09.939Z,987
2018-07-08T05:22:11.332Z,987.1
2018-07-08T05:23:12.640Z,987.1
2018-07-08T05:24:13.900Z,987.1
2018-07-08T05:25:15.283Z,987.1
2018-07-08T05:26:32.440Z,987.1
2018-07-08T05:27:34.015Z,986.9
2018-07-08T05:28:35.352Z,987.1
2018-07-08T05:29:36.700Z,987.1
2018-07-08T05:30:38.115Z,987.1
2018-07-08T05:31:39.483Z,987.1
2018-07-08T05:32:40.801Z,987.1
2018-07-08T05:33:42.121Z,987.1
2018-07-08T05:34:43.386Z,987.2
2018-07-08T05:35:44.833Z,987.1
2018-07-08T05:36:46.061Z,987.1
2018-07-08T05:37:47.717Z,987.1
2018-07-08T05:38:51.741Z,987.1
2018-07-08T05:39:53.180Z,987.1
2018-07-08T05:40:54.706Z,987.1
2018-07-08T05:41:56.093Z,987.1
2018-07-08T05:42:57.687Z,987.1
2018-07-08T05:43:59.142Z,987.1
2018-07-08T05:45:00.574Z,987.1
2018-07-08T05:46:02.838Z,987.1
2018-07-08T05:47:04.664Z,987
2018-07-08T05:48:05.966Z,987
2018-07-08T05:49:07.272Z,987.1
2018-07-08T05:50:08.605Z,987.1
2018-07-08T05:51:09.965Z,987.1
2018-07-08T05:52:12.553Z,987.1
2018-07-08T05:53:14.263Z,987.1
2018-07-08T05:54:15.588Z,987.1
2018-07-08T05:55:16.936Z,987.1
2018-07-08T05:56:18.581Z,987.1
2018-07-08T05:57:20.010Z,987.2
2018-07-08T05:58:21.321Z,987.2
2018-07-08T05:59:22.707Z,987.2
2018-07-08T06:00:24.040Z,987.3
2018-07-08T06:01:27.601Z,987.2
2018-07-08T06:02:29.012Z,987.2
2018-07-08T06:03:44.445Z,987.2
2018-07-08T06:04:45.770Z,987.3
2018-07-08T06:05:48.233Z,987.3
2018-07-08T06:06:50.107Z,987.1
2018-07-08T06:07:52.688Z,987.3
2018-07-08T06:08:54.256Z,987.3
2018-07-08T06:09:55.552Z,987.3
2018-07-08T06:10:56.811Z,987.3
2018-07-08T06:11:58.336Z,987.4
2018-07-08T06:12:59.634Z,987.3
2018-07-08T06:14:00.985Z,987.5
2018-07-08T06:15:05.125Z,987.7
2018-07-08T06:16:06.544Z,987.8
2018-07-08T06:17:20.836Z,987.5
2018-07-08T06:18:22.209Z,987.3
2018-07-08T06:19:23.561Z,987.6
2018-07-08T06:20:27.020Z,987.6
2018-07-08T06:21:28.414Z,987.4
2018-07-08T06:22:32.106Z,987.3
2018-07-08T06:23:33.441Z,987.5
2018-07-08T06:24:34.789Z,987.5
2018-07-08T06:25:36.116Z,987.8
2018-07-08T06:26:37.434Z,987.9
2018-07-08T06:27:38.806Z,987.8
2018-07-08T06:28:40.436Z,988
2018-07-08T06:29:41.778Z,987.7
2018-07-08T06:30:43.093Z,987.3
2018-07-08T06:31:47.802Z,987.5
2018-07-08T06:32:49.543Z,987.5
2018-07-08T06:33:50.979Z,987.6
2018-07-08T06:34:52.300Z,987.6
2018-07-08T06:35:53.579Z,987.4
2018-07-08T06:36:54.938Z,987
2018-07-08T06:37:56.297Z,987.3
2018-07-08T06:38:57.562Z,987.2
2018-07-08T06:39:59.097Z,987
2018-07-08T06:41:00.401Z,987
2018-07-08T06:42:01.873Z,987.3
2018-07-08T06:43:03.228Z,986.9
2018-07-08T06:44:04.596Z,987
2018-07-08T06:45:05.874Z,987
2018-07-08T06:46:07.199Z,987.3
2018-07-08T06:47:08.513Z,987.2
2018-07-08T06:48:09.926Z,987.7
2018-07-08T06:49:11.645Z,987.6
2018-07-08T06:50:12.987Z,987.9
2018-07-08T06:51:14.322Z,987.9
2018-07-08T06:52:15.598Z,987.6
2018-07-08T06:53:16.915Z,987.3
2018-07-08T06:54:18.297Z,987.5
2018-07-08T06:55:19.725Z,987.3
2018-07-08T06:56:24.843Z,987.4
2018-07-08T06:57:28.091Z,987.4
2018-07-08T06:58:29.512Z,987.5
2018-07-08T06:59:31.171Z,987.8
2018-07-08T07:00:39.782Z,987.6
2018-07-08T07:01:41.347Z,987.9
2018-07-08T07:02:42.734Z,987.7
2018-07-08T07:03:45.482Z,987.7
2018-07-08T07:04:46.769Z,987.7
2018-07-08T07:05:53.364Z,987.9
2018-07-08T07:06:56.135Z,988
2018-07-08T07:08:00.169Z,987.6
2018-07-08T07:09:01.544Z,987.8
2018-07-08T07:10:06.260Z,988
2018-07-08T07:11:08.269Z,988.4
2018-07-08T07:12:09.589Z,988.2
2018-07-08T07:13:27.674Z,987.5
2018-07-08T07:14:29.314Z,987.5
2018-07-08T07:15:34.957Z,987.1
2018-07-08T07:16:37.383Z,987.8
2018-07-08T07:17:40.775Z,987.9
2018-07-08T07:18:49.986Z,988.4
2018-07-08T07:19:57.367Z,987.6
2018-07-08T07:20:58.668Z,987.7
2018-07-08T07:22:00.308Z,987.8
2018-07-08T07:23:01.849Z,987.8
2018-07-08T07:24:05.991Z,987.3
2018-07-08T07:25:07.344Z,987.3
2018-07-08T07:26:08.971Z,987.4
2018-07-08T07:27:13.565Z,987.4
2018-07-08T07:28:14.889Z,987.7
2018-07-08T07:29:16.681Z,987.8
2018-07-08T07:30:18.370Z,987.7
2018-07-08T07:31:19.771Z,987.2
2018-07-08T07:32:23.440Z,987.5
2018-07-08T07:33:28.329Z,987.6
2018-07-08T07:34:29.665Z,987.8
2018-07-08T07:35:39.433Z,987.5
2018-07-08T07:36:43.639Z,987.5
2018-07-08T07:37:45.157Z,987.3
2018-07-08T07:38:46.679Z,987.5
2018-07-08T07:39:48.236Z,988
2018-07-08T07:40:57.018Z,987.5
2018-07-08T07:42:01.609Z,987.4
2018-07-08T07:43:06.989Z,987.3
2018-07-08T07:44:12.083Z,987.3
2018-07-08T07:45:16.330Z,987.9
2018-07-08T07:46:19.418Z,987.7
2018-07-08T07:47:27.102Z,987.3
2018-07-08T07:48:31.580Z,987.4
2018-07-08T07:49:33.476Z,987.6
2018-07-08T07:50:36.829Z,987.3
2018-07-08T07:51:38.353Z,987.7
2018-07-08T07:52:42.216Z,987.6
2018-07-08T07:53:43.716Z,988.3
2018-07-08T07:54:45.311Z,987.8
2018-07-08T07:55:46.639Z,988.2
2018-07-08T07:56:48.053Z,987.3
2018-07-08T07:57:49.655Z,987.6
2018-07-08T07:58:51.696Z,987.7
2018-07-08T07:59:52.917Z,987.4
2018-07-08T08:00:54.379Z,988.1
2018-07-08T08:02:02.579Z,988.2
2018-07-08T08:03:06.105Z,987.6
2018-07-08T08:04:12.212Z,987.3
2018-07-08T08:05:16.617Z,987.8
2018-07-08T08:06:18.324Z,988.2
2018-07-08T08:07:22.747Z,988.4
2018-07-08T08:08:24.475Z,988.3
2018-07-08T08:09:34.267Z,987.4
2018-07-08T08:10:36.023Z,987.4
2018-07-08T08:11:37.337Z,987.9
2018-07-08T08:12:42.461Z,988.2
2018-07-08T08:13:43.764Z,987.5
2018-07-08T08:14:45.927Z,987.4
2018-07-08T08:15:47.201Z,987.9
2018-07-08T08:16:48.487Z,988
2018-07-08T08:17:53.065Z,988.2
2018-07-08T08:18:57.603Z,987.8
2018-07-08T08:19:58.938Z,988.2
2018-07-08T08:21:03.284Z,987.8
2018-07-08T08:22:05.024Z,987.2
2018-07-08T08:23:07.371Z,987.7
2018-07-08T08:24:15.702Z,988.4
2018-07-08T08:25:17.886Z,988.3
2018-07-08T08:26:19.438Z,987.9
2018-07-08T08:27:22.107Z,987.6
2018-07-08T08:28:26.322Z,987.4
2018-07-08T08:29:27.808Z,987.6
2018-07-08T08:30:29.566Z,987.8
2018-07-08T08:31:30.849Z,987.7
2018-07-08T08:32:32.326Z,987.7
2018-07-08T08:33:33.722Z,988
2018-07-08T08:34:35.301Z,988.4
2018-07-08T08:35:37.969Z,988.5
2018-07-08T08:36:39.424Z,988.3
2018-07-08T08:37:45.083Z,988.3
2018-07-08T08:38:46.837Z,988
2018-07-08T08:39:48.357Z,987.7
2018-07-08T08:40:51.349Z,987.4
2018-07-08T08:41:52.701Z,987.7
2018-07-08T08:42:54.281Z,987.8
2018-07-08T08:43:56.094Z,987.8
2018-07-08T08:44:57.385Z,987.9
2018-07-08T08:46:00.692Z,987.9
2018-07-08T08:47:02.331Z,988.3
2018-07-08T08:48:03.630Z,988.3
2018-07-08T08:49:05.076Z,987.9
2018-07-08T08:50:09.029Z,987.8
2018-07-08T08:51:11.539Z,987.9
2018-07-08T08:52:13.308Z,988.3
2018-07-08T08:53:14.591Z,987.5
2018-07-08T08:54:16.243Z,988
2018-07-08T08:55:17.652Z,988.1
2018-07-08T08:56:22.330Z,987.9
2018-07-08T08:57:24.147Z,987.8
2018-07-08T08:58:38.709Z,988
2018-07-08T08:59:47.684Z,987.3
2018-07-08T09:00:59.456Z,987
2018-07-08T09:02:10.071Z,987.7
2018-07-08T09:03:22.384Z,988.2
2018-07-08T09:04:24.094Z,988.4
2018-07-08T09:05:36.324Z,987.9
2018-07-08T09:06:37.691Z,988.1
2018-07-08T09:07:39.299Z,987.6
2018-07-08T09:08:40.806Z,987.9
2018-07-08T09:09:46.597Z,987.7
2018-07-08T09:11:02.699Z,987.3
2018-07-08T09:12:04.525Z,988
2018-07-08T09:13:14.235Z,988.2
2018-07-08T09:14:31.849Z,987.5
2018-07-08T09:15:36.919Z,987.9
2018-07-08T09:16:40.291Z,987.6
2018-07-08T09:17:47.100Z,987.5
2018-07-08T09:18:48.592Z,987.4
2018-07-08T09:19:51.321Z,988.3
2018-07-08T09:20:55.113Z,988.1
2018-07-08T09:21:56.655Z,987.5
2018-07-08T09:22:58.048Z,987.4
2018-07-08T09:23:59.610Z,987.5
2018-07-08T09:25:01.159Z,988.1
2018-07-08T09:26:05.442Z,987.6
2018-07-08T09:27:07.501Z,987.3
2018-07-08T09:28:15.189Z,987.5
2018-07-08T09:29:16.569Z,987.6
2018-07-08T09:30:20.324Z,987.6
2018-07-08T09:31:22.854Z,987.1
2018-07-08T09:32:24.180Z,987.3
2018-07-08T09:33:32.090Z,987.2
2018-07-08T09:34:33.861Z,987.2
2018-07-08T09:35:37.169Z,987.3
2018-07-08T09:36:46.184Z,987.6
2018-07-08T09:37:48.647Z,987.3
2018-07-08T09:38:50.042Z,987.9
2018-07-08T09:39:53.852Z,987.6
2018-07-08T09:40:58.008Z,987.3
2018-07-08T09:41:59.602Z,987.4
2018-07-08T09:43:01.109Z,987.8
2018-07-08T09:44:03.032Z,988.3
2018-07-08T09:45:10.093Z,987.9
2018-07-08T09:46:11.460Z,988
2018-07-08T09:47:13.010Z,987.8
2018-07-08T09:48:14.380Z,987.3
2018-07-08T09:49:18.425Z,987.2
2018-07-08T09:50:19.791Z,987.5
2018-07-08T09:52:58.112Z,987.5
2018-07-08T09:54:03.278Z,987.3
2018-07-08T09:55:07.499Z,987.1
2018-07-08T09:56:16.164Z,987.5
2018-07-08T09:57:21.365Z,987.6
2018-07-08T09:58:25.165Z,987.8
2018-07-08T09:59:27.177Z,987.9
2018-07-08T10:00:31.554Z,988
2018-07-08T10:01:37.560Z,987.8
2018-07-08T10:02:39.102Z,987.9
2018-07-08T10:03:41.845Z,987.7
2018-07-08T10:04:43.397Z,987.2
2018-07-08T10:05:44.916Z,987.7
2018-07-08T10:06:46.356Z,987.8
2018-07-08T10:07:47.953Z,987.9
2018-07-08T10:08:49.388Z,987.7
2018-07-08T10:09:51.251Z,987.6
2018-07-08T10:10:52.588Z,987.7
2018-07-08T10:11:56.329Z,987.2
2018-07-08T10:13:13.188Z,987.2
2018-07-08T10:14:33.119Z,986.7
2018-07-08T10:15:38.137Z,987.1
2018-07-08T10:16:42.781Z,987.2
2018-07-08T10:17:44.366Z,987.5
2018-07-08T10:18:46.682Z,987.5
2018-07-08T10:19:48.773Z,987.7
2018-07-08T10:20:51.091Z,987.6
2018-07-08T10:22:05.101Z,987.3
2018-07-08T10:23:16.476Z,986.7
2018-07-08T10:24:21.230Z,987
2018-07-08T10:25:26.440Z,987.1
2018-07-08T10:26:32.361Z,987.1
2018-07-08T10:27:39.297Z,987.3
2018-07-08T10:28:40.916Z,987.4
2018-07-08T10:30:58.361Z,987.3
2018-07-08T10:32:00.278Z,987.4
2018-07-08T10:33:06.874Z,987.2
2018-07-08T10:34:08.313Z,987.3
2018-07-08T10:35:17.414Z,987.3
2018-07-08T10:36:21.244Z,987.1
2018-07-08T10:37:23.091Z,987.2
2018-07-08T10:38:25.105Z,986.8
2018-07-08T10:39:26.723Z,986.9
2018-07-08T10:40:31.165Z,986.9
2018-07-08T10:41:42.323Z,986.9
2018-07-08T10:43:06.343Z,987.1
2018-07-08T10:44:09.753Z,986.9
2018-07-08T10:45:35.432Z,986.8
2018-07-08T10:46:44.023Z,986.9
2018-07-08T10:47:46.106Z,986.8
2018-07-08T10:48:51.627Z,986.9
2018-07-08T10:49:53.240Z,987
2018-07-08T10:50:57.609Z,987
2018-07-08T10:53:25.188Z,987.1
2018-07-08T10:54:26.674Z,986.6
2018-07-08T10:55:32.313Z,986.7
2018-07-08T10:56:36.426Z,986.6
2018-07-08T10:57:39.177Z,986.7
2018-07-08T10:58:40.812Z,986.6
2018-07-08T10:59:46.777Z,986.8
2018-07-08T11:01:22.110Z,986.9
2018-07-08T11:02:26.415Z,986.8
2018-07-08T11:03:31.010Z,986.6
2018-07-08T11:04:34.967Z,986.8
2018-07-08T11:05:45.972Z,986.6
2018-07-08T11:20:56.793Z,986.2
2018-07-08T11:21:59.097Z,986.5
2018-07-08T11:23:01.536Z,986.6
2018-07-08T11:24:03.004Z,986.5
2018-07-08T11:25:18.834Z,986.3
2018-07-08T11:26:33.795Z,986.4
2018-07-08T11:27:40.293Z,986.3
2018-07-08T11:28:44.318Z,986.2
2018-07-08T11:29:50.733Z,986.5
2018-07-08T11:30:52.368Z,986.4
2018-07-08T11:31:53.982Z,986.5
2018-07-08T11:32:57.344Z,986.4
2018-07-08T11:34:04.697Z,986.4
2018-07-08T11:35:08.329Z,986.4
2018-07-08T11:36:09.819Z,986.4
2018-07-08T11:37:11.639Z,986.3
2018-07-08T11:38:18.854Z,986.3
2018-07-08T11:39:22.537Z,986.4
2018-07-08T11:40:31.072Z,986.5
2018-07-08T11:41:35.230Z,986.2
2018-07-08T11:42:36.772Z,986.2
2018-07-08T11:43:42.834Z,986.3
2018-07-08T11:44:48.301Z,986.3
2018-07-08T11:45:50.741Z,986.3
2018-07-08T11:46:52.308Z,986
2018-07-08T11:47:54.685Z,986.1
2018-07-08T11:48:58.407Z,986.2
2018-07-08T11:50:06.725Z,986.4
2018-07-08T11:51:08.029Z,986.5
2018-07-08T11:52:12.479Z,986.2
2018-07-08T11:53:16.630Z,986.3
2018-07-08T11:54:20.254Z,986.4
2018-07-08T11:55:31.652Z,986.3
2018-07-08T11:56:35.887Z,986.3
2018-07-08T11:57:40.212Z,986.3
2018-07-08T11:58:43.327Z,986.3
2018-07-08T11:59:45.833Z,986.3
2018-07-08T12:00:47.781Z,986.2
2018-07-08T12:01:54.736Z,986
2018-07-08T12:03:03.775Z,986.2
2018-07-08T12:04:13.362Z,986.3
2018-07-08T12:05:18.306Z,986.3
2018-07-08T12:06:34.401Z,986.3
2018-07-08T12:07:48.028Z,986.2
2018-07-08T12:08:52.489Z,986.3
2018-07-08T12:10:03.191Z,986.3
2018-07-08T12:11:06.706Z,986.3
2018-07-08T12:12:23.135Z,986.3
2018-07-08T12:13:42.115Z,986.2
2018-07-08T12:14:49.725Z,986.1
2018-07-08T12:16:09.559Z,986.4
2018-07-08T12:18:27.104Z,986.1
2018-07-08T12:19:38.752Z,986
2018-07-08T12:20:47.594Z,986.1
2018-07-08T12:21:52.168Z,986.1
2018-07-08T12:22:56.593Z,986.1
2018-07-08T12:23:58.106Z,986.1
2018-07-08T12:25:00.305Z,986.3
2018-07-08T12:26:06.236Z,986.5
2018-07-08T12:27:14.861Z,986.3
2018-07-08T12:28:16.143Z,986
2018-07-08T12:29:20.715Z,986
2018-07-08T12:30:30.364Z,986.1
2018-07-08T12:31:34.736Z,986.1
2018-07-08T12:32:36.484Z,986.1
2018-07-08T12:33:37.932Z,986.2
2018-07-08T12:34:39.306Z,986.3
2018-07-08T12:35:41.306Z,986.3
2018-07-08T12:36:42.726Z,986.2
2018-07-08T12:37:47.662Z,986.2
2018-07-08T12:38:54.485Z,985.9
2018-07-08T12:39:55.989Z,986.1
2018-07-08T12:41:04.324Z,986.2
2018-07-08T12:42:15.473Z,986.1
2018-07-08T12:43:19.593Z,986.1
2018-07-08T12:44:21.323Z,986.3
2018-07-08T12:45:28.426Z,986.3
2018-07-08T12:46:34.409Z,986.1
2018-07-08T12:47:38.848Z,986.1
2018-07-08T12:48:45.480Z,986
2018-07-08T12:49:46.958Z,986
2018-07-08T12:50:50.355Z,986
2018-07-08T12:51:51.768Z,986.1
2018-07-08T12:52:53.308Z,986.2
2018-07-08T12:53:58.602Z,985.9
2018-07-08T12:54:59.957Z,986.1
2018-07-08T12:56:01.889Z,986.1
2018-07-08T12:57:04.280Z,986.1
2018-07-08T12:58:05.805Z,986.1
2018-07-08T12:59:07.336Z,986.1
2018-07-08T13:00:10.344Z,986.1
2018-07-08T13:01:16.571Z,986.1
2018-07-08T13:02:18.225Z,986.1
2018-07-08T13:03:26.709Z,986.2
2018-07-08T13:04:32.908Z,986.3
2018-07-08T13:05:40.310Z,986.3
2018-07-08T13:06:41.738Z,986.3
2018-07-08T13:07:47.327Z,986.3
2018-07-08T13:08:48.656Z,986.3
2018-07-08T13:09:50.414Z,986.2
2018-07-08T13:10:54.112Z,986.1
2018-07-08T13:11:55.346Z,986.1
2018-07-08T13:12:57.172Z,986.2
2018-07-08T13:14:08.299Z,986
2018-07-08T13:15:12.544Z,986.1
2018-07-08T13:16:16.601Z,986.2
2018-07-08T13:17:18.157Z,986.1
2018-07-08T13:18:21.572Z,986
2018-07-08T13:19:23.167Z,986
2018-07-08T13:20:27.595Z,986.3
2018-07-08T13:21:29.146Z,986.1
2018-07-08T13:22:30.418Z,986.3
2018-07-08T13:23:32.227Z,986.3
2018-07-08T13:24:43.849Z,986.1
2018-07-08T13:25:45.644Z,986.1
2018-07-08T13:26:47.446Z,986
2018-07-08T13:27:51.043Z,986.1
2018-07-08T13:28:52.561Z,986
2018-07-08T13:29:58.374Z,986
2018-07-08T13:31:14.382Z,986.2
2018-07-08T13:32:15.971Z,986.2
2018-07-08T13:33:17.511Z,986.2
2018-07-08T13:34:21.354Z,986.2
2018-07-08T13:35:30.262Z,986.2
2018-07-08T13:36:31.577Z,986.1
2018-07-08T13:37:39.913Z,986.2
2018-07-08T13:38:44.818Z,986.2
2018-07-08T13:39:49.492Z,986.2
2018-07-08T13:40:56.631Z,986
2018-07-08T13:41:57.953Z,986
2018-07-08T13:43:02.282Z,986
2018-07-08T13:44:03.706Z,986.1
2018-07-08T13:45:07.305Z,986
2018-07-08T13:46:09.388Z,986.2
2018-07-08T13:47:13.496Z,986.1
2018-07-08T13:48:14.987Z,986.1
2018-07-08T13:49:17.806Z,986
2018-07-08T13:50:20.275Z,986.1
2018-07-08T13:51:27.599Z,986.2
2018-07-08T13:52:28.921Z,986.2
2018-07-08T13:53:40.309Z,986.1
2018-07-08T13:54:41.838Z,986
2018-07-08T13:55:51.329Z,985.9
2018-07-08T13:56:52.616Z,985.7
2018-07-08T13:57:54.179Z,985.9